Immagine casuale
Testata Regione Lazio ARSIAL SIARL

Ultima Misura Rilevata

Temperatura, Umidità, Pioggia, Pressione Radiazione Solare, Venti, Evapotraspirazione, ecc.
Temperature diurne e notturne Direzione vento Legenda
Prov Stazione Data TMin TMed TMax UMed Pioggia PMed
FR ALATRI Basciano 18/03/2019 6 11,1 20,4 72 0 1.013
FR ALVITO Az. Ist. S. Benedetto 18/03/2019 4,8 10,9 17,4 78 0 1.015
FR ANAGNI La Gloria 18/03/2019 3,5 10 17,7 84 0 1.011
FR ARPINO Vigne Piane 18/03/2019 4,9 10,3 18,3 79 0 1.017
FR BOVILLE ERNICA Sasso 18/03/2019 5,5 11,5 18,8 77 0 1.015
FR ESPERIA Modale 18/03/2019 3,3 10,2 18,5 80 0 1.016
FR PASTENA Acero 18/03/2019 0 8,8 18,2 83 0,2 1.015
FR PIGLIO Civitella 18/03/2019 3,4 9,6 18 81 0 1.014
FR PONTECORVO Melfi di Sotto 18/03/2019 3 10,5 18,7 83 0 ----
FR S. ELIA FIUMERAPIDO Portella 18/03/2019 8,3 12,3 19 84 0 1.014
FR S. GIORGIO A LIRI Porto 18/03/2019 3,6 10 19,6 87 0,2 1.010
FR SGURGOLA Campo Lungo 18/03/2019 1,9 10,2 17,4 83 0 ----
FR VALLECORSA Serbatoio comunale 18/03/2019 6,2 9,6 13,7 80 0 1.017
LT APRILIA Le Ferriere 18/03/2019 6,6 11,1 16,4 83 0 1.014
LT CISTERNA B.go Carso 18/03/2019 5,5 10,4 15,5 83 0 ----
LT CISTERNA Doganella di Ninfa 18/03/2019 6,2 11,4 17 79 0 1.015
LT CORI Portone 18/03/2019 7,5 11,3 15,9 79 0 1.014
LT FONDI Capratica 18/03/2019 3,8 11 17,1 87 0 1.014
LT FORMIA Loc. Gianola 18/03/2019 4,3 11,1 16,7 87 0 ----
LT ITRI Valle Quercia 18/03/2019 5,9 10,6 15,5 80 0 1.012
LT MAENZA Casacotta 18/03/2019 6 10,8 17,5 84 0 1.015
LT MINTURNO Pulcherini 18/03/2019 7,8 12,2 17,2 92 0 1.015
LT PONTINIA Cotarda 18/03/2019 4,5 10,9 17 84 0 1.016
LT SABAUDIA Acquaviva 18/03/2019 5,1 10,7 16,9 85 0,2 1.014
LT SONNINO Frasso 18/03/2019 9,1 12,4 18,2 74 0 1.014
RI ACCUMOLI Terracino 18/03/2019 0,3 6,3 11,9 73 0 1.013
RI BORGOVELINO Ponte Basso 18/03/2019 0,6 8,3 17,1 80 0 1.011
RI CANTALUPO S. Francesco 18/03/2019 7,2 11,2 15,1 75 0,2 ----
RI CASTEL DI TORA Monte di Tora 18/03/2019 1,9 9 17,9 79 0 1.014
RI CASTELNUOVO FARFA C. Spadone 18/03/2019 7,2 11,9 16 79 0 ----
RI CONFIGNI Portella 18/03/2019 7,5 10,3 13,2 81 0 1.017
RI FARA SABINA Canneto 18/03/2019 7,4 11,7 16,8 76 0 1.011
RI FARA SABINA Sant'Andrea 18/03/2019 8,7 12,1 16,6 76 0 ----
RI MONTELEONE S. Prato Camino 18/03/2019 4,7 9,9 19 81 0 1.014
RI MONTOPOLI IN SABINA Colle Arcone 18/03/2019 8,4 11,8 16,1 84 0,4 ----
RI MONTOPOLI IN SABINA Villa Caprola 18/03/2019 8,3 12,9 18,9 87 0,1 ----
RI POGGIO CATINO Pastine 18/03/2019 8,4 11,1 15,2 79 0,6 ----
RI POGGIO NATIVO Casali 18/03/2019 6,4 9,9 14 86 0 ----
RI RIETI Piana di Rieti 18/03/2019 3,5 10,4 18,3 69 0 1.015
RI SCANDRIGLIA Ponticelli 18/03/2019 5,2 10,2 15,1 86 0 ----
RM AGOSTA La Cisterna 18/03/2019 2,8 9,6 17,8 79 0 1.012
RM BRACCIANO Prato Pianciano 18/03/2019 5,6 10,7 16,5 88 0,2 1.011
RM CANALE MONTERANO Monte Virginio 18/03/2019 4,6 9,6 15,8 90 0,2 1.011
RM CERVETERI Campo di Mare 18/03/2019 8,4 12,5 16,1 76 0 ----
RM CIVITELLA S.PAOLO Le Cese 18/03/2019 6,6 11 16,8 81 0 1.012
RM FIUMICINO Maccarese 18/03/2019 7,8 12 17,1 84 0 1.013
RM FIUMICINO Testa di Lepre 18/03/2019 8,2 11,7 16,2 82 0 ----
RM FORMELLO Perazzeta 18/03/2019 7,7 11,6 15,8 81 0 ----
RM FRASCATI Prata Porci 18/03/2019 4,7 10,6 18,5 81 0 1.014
RM GENAZZANO Coop. La Sonnina 18/03/2019 4,3 10 15,4 84 0 1.015
RM GROTTAFERRATA Valle Marciana 18/03/2019 6,3 10,5 16,2 80 0 1.013
RM LICENZA Colle Franco 18/03/2019 3 9,3 16,2 80 0 1.016
RM MARCELLINA V. Campetella 18/03/2019 7,3 11,7 16,6 80 0 ----
RM MARINO Gotto d'Oro 18/03/2019 7,8 11,4 16,5 84 0 1.015
RM MONTECOMPATRI Colle Mattia 18/03/2019 4,3 10,3 17,1 80 0 1.015
RM MONTECOMPATRI Pantano Borghese 18/03/2019 4,5 11,3 18,3 78 0 1.013
RM MONTELIBRETTI Bruciati 18/03/2019 7 12,3 18 75 0 ----
RM MONTEPORZIO Camaldoli 18/03/2019 3,7 7,8 13,3 88 0 1.015
RM MONTEROTONDO Grotta Marozza 18/03/2019 9,3 12,1 17,3 76 0 1.013
RM PALOMBARA Fonte Grande 18/03/2019 5,3 11,1 16,1 72 0 ----
RM ROMA Capocotta 18/03/2019 N.D. N.D. N.D. N.D. N.D. ----
RM ROMA Ponte di Nona 18/03/2019 7,6 11,9 17,7 83 0 1.015
RM ROMA Via Lanciani 38 18/03/2019 N.D. N.D. N.D. N.D. N.D. N.D.
RM S. GREGORIO C. Faustiniano 18/03/2019 6,4 10,3 16,2 78 0 1.012
RM VELLETRI Cantina Sperimentale 18/03/2019 5,8 10,1 15 83 0 1.015
RM VELLETRI Prato Lungo 18/03/2019 6,1 11 15,8 78 0 ----
RM ZAGAROLO Santa Apollara 18/03/2019 6 11,1 16,5 80 0 ----
VT ACQUAPENDENTE Falconiera 18/03/2019 5,9 9,2 15,1 85 0 1.012
VT BAGNOREGIO Castell Cellesi 18/03/2019 6,2 9,4 14,6 78 0,2 ----
VT BASSANO R. Piano Mola 18/03/2019 5,6 8,9 14,5 94 0,4 1.009
VT BLERA Puntoni 18/03/2019 8 11 14,6 84 0 1.012
VT BOLSENA Capone 18/03/2019 6,5 10,4 17,1 83 2,4 1.009
VT BOLSENA Rentica 18/03/2019 6,6 10 14,1 87 0,2 ----
VT CANINO Diga Timone 18/03/2019 6,2 11,1 17 84 0 1.013
VT CANINO Pianacce 18/03/2019 5,1 11 15,5 83 0 1.013
VT CANINO San Valeriano 18/03/2019 7,3 10,9 14,7 85 0 ----
VT CELLENO Acquaforte 18/03/2019 6 9,8 15,6 89 1,2 ----
VT CORCHIANO Pantalone 18/03/2019 5,4 11 16,5 83 2,8 1.013
VT FARNESE Gressa 18/03/2019 5,9 9,8 13,5 87 0 ----
VT FARNESE Pian di Sala 18/03/2019 3,5 9,1 13,4 88 0,1 ----
VT GROTTE DI CASTRO Borghetto 18/03/2019 6,7 10,1 14,6 86 0 1.014
VT GROTTE DI CASTRO Purgatorio 18/03/2019 4,8 9 15,3 88 0,2 1.015
VT LATERA Centro Florovivaistico 18/03/2019 5,8 10 16,5 86 0,2 1.012
VT MONTALTO Le Murelle 18/03/2019 6,5 12,6 16,1 80 0 1.013
VT MONTALTO Pescia Romana 18/03/2019 6,5 12,4 16,1 82 0 1.012
VT MONTEFIASCONE Commenda 18/03/2019 7,9 11 15,6 87 0 ----
VT RONCIGLIONE Ponterotto 18/03/2019 6,6 10,7 14,9 83 3 ----
VT SORIANO CIMINO Pantane 18/03/2019 7,7 10,8 16,9 84 2,2 1.012
VT SORIANO CIMINO Poggio di Chia 18/03/2019 7,1 10,5 14,8 88 2,4 ----
VT TARQUINIA Portaccia 18/03/2019 7,5 12,9 17,2 82 0 ----
VT TUSCANIA Montebello 18/03/2019 7,2 10,5 14,5 85 0 ----
VT VETRALLA Marchionato 18/03/2019 8 11,1 15 93 0 ----
VT VITERBO Pisello 18/03/2019 7,8 10,5 14,8 87 0 ----
N.D. = Dati Non Disponibili
---- = Sensore non presente

Le misure esposte sono grezze, ovvero non sono state validate